»·PEaware :: AAY280 KIWA-KPVU

AAY280 :: KIWA-KPVU

FLIGHT INFORMATION

Flight Status: Arrived
Operator:
Allegiant Air
More flights by this operator :: More flights under this callsign
Pilot: Greg D. (18636)
Aircraft: AIRBUS A320
(A320)
More flights by this aircraft type
Origin: KIWA Williams Gateway
United States
Destination: KPVU Provo Mun
United States
More flights between these airports :: More routes between these airports
Route: SNOBL5 GCN BCE DTA FFU
File this flight plan on PilotEdge
Remarks: "Allegiant" Fight Factor A320 X-Plane 11
Altitude:
(Current/Filed)
36,000ft
Speed:
(Current/Filed)
516kts
Departed: 26-Mar-18 03:40 PM
Arrived: 26-Mar-18 04:51 PM
Distance/Time
Traveled:
421nm/1:11
Distance/Time
To Go:
Arrived

Flight Plot

Page will automatically refresh every two minutes.

Flight plan parsing failed; only flown route is shown


Map Options




Map Legend


Flown Route
Filed Route
Departure Airport
Arrival Airport
Navaid (VOR, NDB)
Fix

Horizontal Profiles

Position Reports

Time Latitude Longitude Heading Altitude Ground
Speed
26-Mar-18 15:15 33.305150 -111.668122 270 1358ft 0kts
26-Mar-18 15:16 33.305150 -111.668122 270 1358ft 0kts
26-Mar-18 15:17 33.305150 -111.668122 270 1358ft 0kts
26-Mar-18 15:18 33.305150 -111.668122 270 1358ft 0kts
26-Mar-18 15:19 33.305150 -111.668122 270 1358ft 0kts
26-Mar-18 15:20 33.305150 -111.668122 270 1358ft 0kts
26-Mar-18 15:21 33.305150 -111.668122 270 1358ft 0kts
26-Mar-18 15:22 33.305150 -111.668122 270 1358ft 0kts
26-Mar-18 15:23 33.305150 -111.668122 270 1358ft 0kts
26-Mar-18 15:24 33.305150 -111.668122 270 1358ft 0kts
26-Mar-18 15:25 33.305150 -111.668122 270 1358ft 0kts
26-Mar-18 15:26 33.305150 -111.668122 270 1358ft 0kts
26-Mar-18 15:27 33.305150 -111.668122 270 1358ft 0kts
26-Mar-18 15:28 33.305204 -111.667819 242 1359ft 2kts
26-Mar-18 15:29 33.305691 -111.667461 178 1359ft 2kts
26-Mar-18 15:30 33.305903 -111.667465 181 1359ft 0kts
26-Mar-18 15:31 33.305903 -111.667465 181 1359ft 0kts
26-Mar-18 15:32 33.305904 -111.667372 1 1360ft 1kts
26-Mar-18 15:33 33.306666 -111.667450 13 1359ft 3kts
26-Mar-18 15:34 33.307027 -111.665500 88 1361ft 11kts
26-Mar-18 15:35 33.306862 -111.662339 121 1366ft 9kts
26-Mar-18 15:36 33.303476 -111.658359 134 1371ft 24kts
26-Mar-18 15:37 33.298435 -111.652422 136 1377ft 25kts
26-Mar-18 15:38 33.298378 -111.650361 314 1381ft 34kts
26-Mar-18 15:39 33.325786 -111.676658 345 3169ft 172kts
26-Mar-18 15:40 33.393290 -111.661198 10 3908ft 345kts
26-Mar-18 15:41 33.485115 -111.646603 338 5636ft 280kts
26-Mar-18 15:42 33.560965 -111.682447 335 8674ft 298kts
26-Mar-18 15:43 33.640750 -111.720474 336 11352ft 344kts
26-Mar-18 15:44 33.731905 -111.763795 335 14140ft 367kts
26-Mar-18 15:45 33.827563 -111.809415 334 16771ft 383kts
26-Mar-18 15:46 33.928149 -111.857483 334 19152ft 398kts
26-Mar-18 15:47 34.032053 -111.907253 333 20934ft 407kts
26-Mar-18 15:48 34.137279 -111.940670 351 21402ft 421kts
26-Mar-18 15:49 34.255078 -111.953628 350 23255ft 434kts
26-Mar-18 15:50 34.376730 -111.967100 350 24937ft 447kts
26-Mar-18 15:51 34.502026 -111.980962 349 26485ft 459kts
26-Mar-18 15:52 34.608613 -111.992752 349 27681ft 468kts
26-Mar-18 15:53 34.739511 -112.007275 349 29001ft 478kts
26-Mar-18 15:54 34.895356 -112.024770 349 30412ft 489kts
26-Mar-18 15:55 35.027130 -112.039635 350 32318ft 474kts
26-Mar-18 15:56 35.150656 -112.053639 351 33421ft 475kts
26-Mar-18 15:57 35.281591 -112.068495 351 34436ft 476kts
26-Mar-18 15:58 35.390074 -112.080631 351 35356ft 474kts
26-Mar-18 15:59 35.520197 -112.093417 351 36051ft 472kts
26-Mar-18 16:00 35.649496 -112.108599 350 36092ft 472kts
26-Mar-18 16:01 35.776601 -112.123902 352 36099ft 463kts
26-Mar-18 16:02 35.902358 -112.139056 352 36052ft 458kts
26-Mar-18 16:03 36.028425 -112.152126 353 36079ft 459kts
26-Mar-18 16:04 36.123059 -112.160591 353 36100ft 466kts
26-Mar-18 16:05 36.239966 -112.171095 353 36098ft 465kts
26-Mar-18 16:06 36.367963 -112.182624 353 36097ft 465kts
26-Mar-18 16:07 36.495931 -112.194186 353 36098ft 465kts
26-Mar-18 16:08 36.623526 -112.205753 353 36101ft 465kts
26-Mar-18 16:09 36.752057 -112.217443 353 36085ft 465kts
26-Mar-18 16:10 36.880359 -112.229153 353 36082ft 465kts
26-Mar-18 16:11 37.008870 -112.240920 353 36100ft 465kts
26-Mar-18 16:12 37.130892 -112.252135 354 36152ft 460kts
26-Mar-18 16:13 37.256379 -112.263705 354 36112ft 456kts
26-Mar-18 16:14 37.381244 -112.275251 354 36075ft 454kts
26-Mar-18 16:15 37.506261 -112.286848 354 36076ft 454kts
26-Mar-18 16:16 37.630620 -112.298425 354 36092ft 455kts
26-Mar-18 16:17 37.755063 -112.311751 352 36110ft 455kts
26-Mar-18 16:18 37.880289 -112.327300 352 36117ft 456kts
26-Mar-18 16:19 38.004915 -112.342655 353 36119ft 456kts
26-Mar-18 16:20 38.119605 -112.356821 353 36120ft 456kts
26-Mar-18 16:21 38.226192 -112.370026 353 36133ft 456kts
26-Mar-18 16:22 38.347235 -112.385067 352 36186ft 456kts
26-Mar-18 16:23 38.472805 -112.400725 353 36211ft 456kts
26-Mar-18 16:24 38.598636 -112.416470 352 36214ft 456kts
26-Mar-18 16:25 38.723840 -112.432192 353 36224ft 456kts
26-Mar-18 16:26 38.849237 -112.447507 355 36233ft 456kts
26-Mar-18 16:27 38.968925 -112.461794 352 36283ft 450kts
26-Mar-18 16:28 39.087597 -112.478078 354 35454ft 424kts
26-Mar-18 16:29 39.146813 -112.485710 354 34241ft 424kts
26-Mar-18 16:30 39.262771 -112.500038 358 31395ft 433kts
26-Mar-18 16:31 39.375208 -112.463648 23 28556ft 438kts
26-Mar-18 16:32 39.481423 -112.402729 23 26241ft 426kts
26-Mar-18 16:33 39.585865 -112.342600 23 23979ft 412kts
26-Mar-18 16:34 39.686669 -112.284341 23 21665ft 399kts
26-Mar-18 16:35 39.785173 -112.227223 23 19341ft 386kts
26-Mar-18 16:36 39.880718 -112.171649 23 17028ft 374kts
26-Mar-18 16:37 39.969831 -112.119661 23 14820ft 362kts
26-Mar-18 16:38 40.057813 -112.068185 23 12586ft 351kts
26-Mar-18 16:39 40.139521 -112.020250 23 11043ft 338kts
26-Mar-18 16:40 40.217151 -111.974630 22 10570ft 286kts
26-Mar-18 16:41 40.287679 -111.951328 337 9317ft 248kts
26-Mar-18 16:42 40.348234 -111.963778 34 8041ft 218kts
26-Mar-18 16:43 40.389871 -111.913800 41 8026ft 189kts
26-Mar-18 16:44 40.377820 -111.863762 139 7898ft 161kts
26-Mar-18 16:45 40.341201 -111.830777 143 7103ft 159kts
26-Mar-18 16:46 40.304735 -111.798453 144 6267ft 158kts
26-Mar-18 16:47 40.269372 -111.767131 144 5447ft 152kts
26-Mar-18 16:48 40.234530 -111.736243 143 4609ft 150kts
26-Mar-18 16:49 40.211829 -111.716067 141 4498ft 43kts
26-Mar-18 16:50 40.212245 -111.714847 18 4498ft 6kts
26-Mar-18 16:51 40.214318 -111.716217 325 4500ft 8kts
26-Mar-18 16:52 40.216498 -111.718134 325 4501ft 10kts
26-Mar-18 16:53 40.218132 -111.718599 50 4501ft 1kts
26-Mar-18 16:54 40.218141 -111.718585 50 4501ft 0kts
26-Mar-18 16:55 40.218141 -111.718585 50 4501ft 0kts
26-Mar-18 16:56 40.378872 -111.927147 39 8037ft 198kts
26-Mar-18 16:57 40.378161 -111.928003 39 8034ft 198kts
26-Mar-18 16:58 40.388127 -111.875003 135 8021ft 162kts
26-Mar-18 16:59 40.352037 -111.840346 144 7390ft 160kts
26-Mar-18 17:00 40.315512 -111.808000 143 6515ft 158kts

Navigation Log

Ident Type
Flight plan parsing failed, navigation log unavailable